sensor_id;sensor_type;location;lat;lon;timestamp;temperature;humidity
9768;DHT22;4923;52.520;13.494;2023-08-21T00:01:39;20.70;99.90
9768;DHT22;4923;52.520;13.494;2023-08-21T00:04:26;20.70;99.90
9768;DHT22;4923;52.520;13.494;2023-08-21T00:07:14;20.60;99.90
9768;DHT22;4923;52.520;13.494;2023-08-21T00:10:01;20.60;99.90
9768;DHT22;4923;52.520;13.494;2023-08-21T00:12:48;20.60;99.90
9768;DHT22;4923;52.520;13.494;2023-08-21T00:15:36;20.50;99.90
9768;DHT22;4923;52.520;13.494;2023-08-21T00:18:23;20.50;99.90
9768;DHT22;4923;52.520;13.494;2023-08-21T00:21:10;20.40;99.90
9768;DHT22;4923;52.520;13.494;2023-08-21T00:23:59;20.40;99.90
9768;DHT22;4923;52.520;13.494;2023-08-21T00:26:46;20.30;99.90
9768;DHT22;4923;52.520;13.494;2023-08-21T00:29:32;20.30;99.90
9768;DHT22;4923;52.520;13.494;2023-08-21T00:32:19;20.20;99.90
9768;DHT22;4923;52.520;13.494;2023-08-21T00:35:06;20.20;99.90
9768;DHT22;4923;52.520;13.494;2023-08-21T00:37:53;20.20;99.90
9768;DHT22;4923;52.520;13.494;2023-08-21T00:40:42;20.20;99.90
9768;DHT22;4923;52.520;13.494;2023-08-21T00:43:28;20.10;99.90
9768;DHT22;4923;52.520;13.494;2023-08-21T00:46:15;20.10;99.90
9768;DHT22;4923;52.520;13.494;2023-08-21T00:49:02;20.10;99.90
9768;DHT22;4923;52.520;13.494;2023-08-21T00:51:50;20.10;99.90
9768;DHT22;4923;52.520;13.494;2023-08-21T00:54:38;20.10;99.90
9768;DHT22;4923;52.520;13.494;2023-08-21T00:57:27;20.10;99.90
9768;DHT22;4923;52.520;13.494;2023-08-21T01:00:14;20.10;99.90
9768;DHT22;4923;52.520;13.494;2023-08-21T01:03:00;20.00;99.90
9768;DHT22;4923;52.520;13.494;2023-08-21T01:05:48;20.00;99.90
9768;DHT22;4923;52.520;13.494;2023-08-21T01:08:40;20.00;99.90
9768;DHT22;4923;52.520;13.494;2023-08-21T01:11:35;20.10;99.90
9768;DHT22;4923;52.520;13.494;2023-08-21T01:14:28;20.10;99.90
9768;DHT22;4923;52.520;13.494;2023-08-21T01:17:17;20.10;99.90
9768;DHT22;4923;52.520;13.494;2023-08-21T01:20:07;20.10;99.90
9768;DHT22;4923;52.520;13.494;2023-08-21T01:22:55;20.10;99.90
9768;DHT22;4923;52.520;13.494;2023-08-21T01:25:43;20.10;99.90
9768;DHT22;4923;52.520;13.494;2023-08-21T01:28:30;20.10;99.90
9768;DHT22;4923;52.520;13.494;2023-08-21T01:31:23;20.10;99.90
9768;DHT22;4923;52.520;13.494;2023-08-21T01:34:11;20.10;99.90
9768;DHT22;4923;52.520;13.494;2023-08-21T01:37:00;20.20;99.90
9768;DHT22;4923;52.520;13.494;2023-08-21T01:39:47;20.20;99.90
9768;DHT22;4923;52.520;13.494;2023-08-21T01:42:36;20.30;99.90
9768;DHT22;4923;52.520;13.494;2023-08-21T01:45:22;20.30;99.90
9768;DHT22;4923;52.520;13.494;2023-08-21T01:48:10;20.30;99.90
9768;DHT22;4923;52.520;13.494;2023-08-21T01:50:56;20.40;99.90
9768;DHT22;4923;52.520;13.494;2023-08-21T01:53:43;20.40;99.90
9768;DHT22;4923;52.520;13.494;2023-08-21T01:56:30;20.50;99.90
9768;DHT22;4923;52.520;13.494;2023-08-21T01:59:19;20.50;99.90
9768;DHT22;4923;52.520;13.494;2023-08-21T02:02:06;20.60;99.90
9768;DHT22;4923;52.520;13.494;2023-08-21T02:04:53;20.60;99.90
9768;DHT22;4923;52.520;13.494;2023-08-21T02:07:40;20.60;99.90
9768;DHT22;4923;52.520;13.494;2023-08-21T02:10:27;20.70;99.90
9768;DHT22;4923;52.520;13.494;2023-08-21T02:13:13;20.60;99.90
9768;DHT22;4923;52.520;13.494;2023-08-21T02:16:02;20.70;99.90
9768;DHT22;4923;52.520;13.494;2023-08-21T02:18:49;20.60;99.90
9768;DHT22;4923;52.520;13.494;2023-08-21T02:21:36;20.60;99.90
9768;DHT22;4923;52.520;13.494;2023-08-21T02:24:23;20.70;99.90
9768;DHT22;4923;52.520;13.494;2023-08-21T02:27:09;20.70;99.90
9768;DHT22;4923;52.520;13.494;2023-08-21T02:29:56;20.70;99.90
9768;DHT22;4923;52.520;13.494;2023-08-21T02:32:44;20.60;99.90
9768;DHT22;4923;52.520;13.494;2023-08-21T02:35:31;20.60;99.90
9768;DHT22;4923;52.520;13.494;2023-08-21T02:38:18;20.60;99.90
9768;DHT22;4923;52.520;13.494;2023-08-21T02:41:05;20.60;99.90
9768;DHT22;4923;52.520;13.494;2023-08-21T02:43:52;20.60;99.90
9768;DHT22;4923;52.520;13.494;2023-08-21T02:46:39;20.70;99.90
9768;DHT22;4923;52.520;13.494;2023-08-21T02:49:28;20.60;99.90
9768;DHT22;4923;52.520;13.494;2023-08-21T02:52:14;20.60;99.90
9768;DHT22;4923;52.520;13.494;2023-08-21T02:55:02;20.60;99.90
9768;DHT22;4923;52.520;13.494;2023-08-21T02:57:49;20.60;99.90
9768;DHT22;4923;52.520;13.494;2023-08-21T03:00:36;20.60;99.90
9768;DHT22;4923;52.520;13.494;2023-08-21T03:03:23;20.70;99.90
9768;DHT22;4923;52.520;13.494;2023-08-21T03:06:11;20.70;99.90
9768;DHT22;4923;52.520;13.494;2023-08-21T03:08:57;20.70;99.90
9768;DHT22;4923;52.520;13.494;2023-08-21T03:11:44;20.70;99.90
9768;DHT22;4923;52.520;13.494;2023-08-21T03:14:31;20.70;99.90
9768;DHT22;4923;52.520;13.494;2023-08-21T03:17:18;20.70;99.90
9768;DHT22;4923;52.520;13.494;2023-08-21T03:20:07;20.60;99.90
9768;DHT22;4923;52.520;13.494;2023-08-21T03:22:55;20.60;99.90
9768;DHT22;4923;52.520;13.494;2023-08-21T03:25:42;20.60;99.90
9768;DHT22;4923;52.520;13.494;2023-08-21T03:28:29;20.70;99.90
9768;DHT22;4923;52.520;13.494;2023-08-21T03:31:16;20.70;99.90
9768;DHT22;4923;52.520;13.494;2023-08-21T03:34:03;20.70;99.90
9768;DHT22;4923;52.520;13.494;2023-08-21T03:36:49;20.80;99.90
9768;DHT22;4923;52.520;13.494;2023-08-21T03:39:38;20.80;99.90
9768;DHT22;4923;52.520;13.494;2023-08-21T03:42:25;20.70;99.90
9768;DHT22;4923;52.520;13.494;2023-08-21T03:45:12;20.70;99.90
9768;DHT22;4923;52.520;13.494;2023-08-21T03:47:59;20.70;99.90
9768;DHT22;4923;52.520;13.494;2023-08-21T03:50:46;20.70;99.90
9768;DHT22;4923;52.520;13.494;2023-08-21T03:53:33;20.70;99.90
9768;DHT22;4923;52.520;13.494;2023-08-21T03:56:21;20.70;99.90
9768;DHT22;4923;52.520;13.494;2023-08-21T03:59:09;20.70;99.90
9768;DHT22;4923;52.520;13.494;2023-08-21T04:01:56;20.70;99.90
9768;DHT22;4923;52.520;13.494;2023-08-21T04:04:42;20.70;99.90
9768;DHT22;4923;52.520;13.494;2023-08-21T04:07:29;20.70;99.90
9768;DHT22;4923;52.520;13.494;2023-08-21T04:10:16;20.70;99.90
9768;DHT22;4923;52.520;13.494;2023-08-21T04:13:05;20.70;99.90
9768;DHT22;4923;52.520;13.494;2023-08-21T04:15:53;20.70;99.90
9768;DHT22;4923;52.520;13.494;2023-08-21T04:18:41;20.80;99.90
9768;DHT22;4923;52.520;13.494;2023-08-21T04:21:28;20.80;99.90
9768;DHT22;4923;52.520;13.494;2023-08-21T04:24:15;20.90;99.90
9768;DHT22;4923;52.520;13.494;2023-08-21T04:27:02;20.90;99.90
9768;DHT22;4923;52.520;13.494;2023-08-21T04:29:50;20.90;99.90
9768;DHT22;4923;52.520;13.494;2023-08-21T04:32:37;20.90;99.90
9768;DHT22;4923;52.520;13.494;2023-08-21T04:35:24;21.00;99.90
9768;DHT22;4923;52.520;13.494;2023-08-21T04:38:10;21.10;99.90
9768;DHT22;4923;52.520;13.494;2023-08-21T04:41:06;21.20;99.90
9768;DHT22;4923;52.520;13.494;2023-08-21T04:43:53;21.30;99.90
9768;DHT22;4923;52.520;13.494;2023-08-21T04:46:41;21.30;99.90
9768;DHT22;4923;52.520;13.494;2023-08-21T04:49:28;21.30;99.90
9768;DHT22;4923;52.520;13.494;2023-08-21T04:52:15;21.30;99.90
9768;DHT22;4923;52.520;13.494;2023-08-21T04:55:03;21.40;99.90
9768;DHT22;4923;52.520;13.494;2023-08-21T04:57:50;21.50;99.90
9768;DHT22;4923;52.520;13.494;2023-08-21T05:00:37;21.50;99.90
9768;DHT22;4923;52.520;13.494;2023-08-21T05:03:26;21.60;99.90
9768;DHT22;4923;52.520;13.494;2023-08-21T05:06:13;21.70;99.90
9768;DHT22;4923;52.520;13.494;2023-08-21T05:09:00;21.90;99.90
9768;DHT22;4923;52.520;13.494;2023-08-21T05:11:47;22.20;99.90
9768;DHT22;4923;52.520;13.494;2023-08-21T05:14:34;22.30;99.90
9768;DHT22;4923;52.520;13.494;2023-08-21T05:17:21;22.50;99.90
9768;DHT22;4923;52.520;13.494;2023-08-21T05:20:10;22.50;99.90
9768;DHT22;4923;52.520;13.494;2023-08-21T05:22:59;22.70;99.90
9768;DHT22;4923;52.520;13.494;2023-08-21T05:25:48;22.60;99.90
9768;DHT22;4923;52.520;13.494;2023-08-21T05:28:35;22.70;99.90
9768;DHT22;4923;52.520;13.494;2023-08-21T05:31:22;22.70;99.90
9768;DHT22;4923;52.520;13.494;2023-08-21T05:34:09;22.80;99.90
9768;DHT22;4923;52.520;13.494;2023-08-21T05:36:57;22.90;99.90
9768;DHT22;4923;52.520;13.494;2023-08-21T05:39:44;23.00;99.90
9768;DHT22;4923;52.520;13.494;2023-08-21T05:42:31;23.20;99.90
9768;DHT22;4923;52.520;13.494;2023-08-21T05:45:17;23.20;99.90
9768;DHT22;4923;52.520;13.494;2023-08-21T05:48:05;23.30;99.90
9768;DHT22;4923;52.520;13.494;2023-08-21T05:50:52;23.40;99.90
9768;DHT22;4923;52.520;13.494;2023-08-21T05:53:40;23.60;99.90
9768;DHT22;4923;52.520;13.494;2023-08-21T05:56:27;23.70;99.90
9768;DHT22;4923;52.520;13.494;2023-08-21T05:59:26;23.80;99.90
9768;DHT22;4923;52.520;13.494;2023-08-21T06:02:14;24.00;99.90
9768;DHT22;4923;52.520;13.494;2023-08-21T06:05:00;24.10;99.90
9768;DHT22;4923;52.520;13.494;2023-08-21T06:07:48;24.20;99.90
9768;DHT22;4923;52.520;13.494;2023-08-21T06:10:37;24.30;99.90
9768;DHT22;4923;52.520;13.494;2023-08-21T06:13:25;24.40;99.90
9768;DHT22;4923;52.520;13.494;2023-08-21T06:16:12;24.60;99.90
9768;DHT22;4923;52.520;13.494;2023-08-21T06:18:59;24.80;99.90
9768;DHT22;4923;52.520;13.494;2023-08-21T06:21:46;24.80;99.90
9768;DHT22;4923;52.520;13.494;2023-08-21T06:24:33;24.70;99.90
9768;DHT22;4923;52.520;13.494;2023-08-21T06:27:21;24.60;99.90
9768;DHT22;4923;52.520;13.494;2023-08-21T06:30:08;24.60;99.90
9768;DHT22;4923;52.520;13.494;2023-08-21T06:32:55;24.60;99.90
9768;DHT22;4923;52.520;13.494;2023-08-21T06:35:42;24.70;99.90
9768;DHT22;4923;52.520;13.494;2023-08-21T06:38:29;24.60;99.90
9768;DHT22;4923;52.520;13.494;2023-08-21T06:41:17;24.50;99.90
9768;DHT22;4923;52.520;13.494;2023-08-21T06:44:05;24.40;99.90
9768;DHT22;4923;52.520;13.494;2023-08-21T06:46:52;24.40;99.90
9768;DHT22;4923;52.520;13.494;2023-08-21T06:49:38;24.40;99.90
9768;DHT22;4923;52.520;13.494;2023-08-21T06:52:25;24.40;99.90
9768;DHT22;4923;52.520;13.494;2023-08-21T06:55:12;24.40;99.90
9768;DHT22;4923;52.520;13.494;2023-08-21T06:57:59;24.40;99.90
9768;DHT22;4923;52.520;13.494;2023-08-21T07:00:48;24.50;99.90
9768;DHT22;4923;52.520;13.494;2023-08-21T07:03:34;24.80;99.90
9768;DHT22;4923;52.520;13.494;2023-08-21T07:06:21;24.90;99.90
9768;DHT22;4923;52.520;13.494;2023-08-21T07:09:08;25.10;99.90
9768;DHT22;4923;52.520;13.494;2023-08-21T07:11:55;25.10;99.90
9768;DHT22;4923;52.520;13.494;2023-08-21T07:14:42;25.20;99.90
9768;DHT22;4923;52.520;13.494;2023-08-21T07:17:30;25.40;99.90
9768;DHT22;4923;52.520;13.494;2023-08-21T07:20:17;25.40;99.90
9768;DHT22;4923;52.520;13.494;2023-08-21T07:23:04;25.30;99.90
9768;DHT22;4923;52.520;13.494;2023-08-21T07:25:51;25.30;99.90
9768;DHT22;4923;52.520;13.494;2023-08-21T07:28:38;25.10;99.90
9768;DHT22;4923;52.520;13.494;2023-08-21T07:31:25;25.10;99.90
9768;DHT22;4923;52.520;13.494;2023-08-21T07:34:13;25.40;99.90
9768;DHT22;4923;52.520;13.494;2023-08-21T07:37:00;25.70;99.90
9768;DHT22;4923;52.520;13.494;2023-08-21T07:39:47;25.60;99.90
9768;DHT22;4923;52.520;13.494;2023-08-21T07:42:34;25.40;99.90
9768;DHT22;4923;52.520;13.494;2023-08-21T07:45:21;25.40;99.90
9768;DHT22;4923;52.520;13.494;2023-08-21T07:48:08;25.40;99.90
9768;DHT22;4923;52.520;13.494;2023-08-21T07:50:56;25.30;99.90
9768;DHT22;4923;52.520;13.494;2023-08-21T07:53:43;25.20;99.90
9768;DHT22;4923;52.520;13.494;2023-08-21T07:56:30;25.00;99.90
9768;DHT22;4923;52.520;13.494;2023-08-21T07:59:17;24.70;99.90
9768;DHT22;4923;52.520;13.494;2023-08-21T08:02:05;25.00;99.90
9768;DHT22;4923;52.520;13.494;2023-08-21T08:04:53;25.10;99.90
9768;DHT22;4923;52.520;13.494;2023-08-21T08:07:41;25.30;99.90
9768;DHT22;4923;52.520;13.494;2023-08-21T08:10:28;25.70;99.90
9768;DHT22;4923;52.520;13.494;2023-08-21T08:13:15;26.00;99.90
9768;DHT22;4923;52.520;13.494;2023-08-21T08:16:02;26.10;99.90
9768;DHT22;4923;52.520;13.494;2023-08-21T08:18:49;25.80;99.90
9768;DHT22;4923;52.520;13.494;2023-08-21T08:21:36;25.80;99.90
9768;DHT22;4923;52.520;13.494;2023-08-21T08:24:24;25.80;99.90
9768;DHT22;4923;52.520;13.494;2023-08-21T08:27:11;25.90;99.90
9768;DHT22;4923;52.520;13.494;2023-08-21T08:29:59;25.80;99.90
9768;DHT22;4923;52.520;13.494;2023-08-21T08:32:45;25.80;99.90
9768;DHT22;4923;52.520;13.494;2023-08-21T08:35:32;25.90;99.90
9768;DHT22;4923;52.520;13.494;2023-08-21T08:38:19;25.70;99.90
9768;DHT22;4923;52.520;13.494;2023-08-21T08:41:17;25.70;99.90
9768;DHT22;4923;52.520;13.494;2023-08-21T08:44:12;25.70;99.90
9768;DHT22;4923;52.520;13.494;2023-08-21T08:47:02;25.70;99.90
9768;DHT22;4923;52.520;13.494;2023-08-21T08:49:50;25.30;99.90
9768;DHT22;4923;52.520;13.494;2023-08-21T08:52:38;25.40;99.90
9768;DHT22;4923;52.520;13.494;2023-08-21T08:55:25;25.60;99.90
9768;DHT22;4923;52.520;13.494;2023-08-21T08:58:14;25.50;99.90
9768;DHT22;4923;52.520;13.494;2023-08-21T09:01:00;25.20;99.90
9768;DHT22;4923;52.520;13.494;2023-08-21T09:03:47;25.10;99.90
9768;DHT22;4923;52.520;13.494;2023-08-21T09:06:36;25.00;99.90
9768;DHT22;4923;52.520;13.494;2023-08-21T09:09:22;25.00;99.90
9768;DHT22;4923;52.520;13.494;2023-08-21T09:12:11;25.10;99.90
9768;DHT22;4923;52.520;13.494;2023-08-21T09:14:59;25.60;99.90
9768;DHT22;4923;52.520;13.494;2023-08-21T09:17:53;25.80;99.90
9768;DHT22;4923;52.520;13.494;2023-08-21T09:20:40;26.20;99.90
9768;DHT22;4923;52.520;13.494;2023-08-21T09:23:28;26.20;99.90
9768;DHT22;4923;52.520;13.494;2023-08-21T09:26:18;26.40;99.90
9768;DHT22;4923;52.520;13.494;2023-08-21T09:29:06;26.80;99.90
9768;DHT22;4923;52.520;13.494;2023-08-21T09:31:57;27.00;99.90
9768;DHT22;4923;52.520;13.494;2023-08-21T09:34:43;26.80;99.90
9768;DHT22;4923;52.520;13.494;2023-08-21T09:37:31;26.60;99.90
9768;DHT22;4923;52.520;13.494;2023-08-21T09:40:18;26.70;99.90
9768;DHT22;4923;52.520;13.494;2023-08-21T09:43:05;26.80;99.90
9768;DHT22;4923;52.520;13.494;2023-08-21T09:45:54;26.50;99.90
9768;DHT22;4923;52.520;13.494;2023-08-21T09:48:43;26.30;99.90
9768;DHT22;4923;52.520;13.494;2023-08-21T09:51:31;26.70;99.90
9768;DHT22;4923;52.520;13.494;2023-08-21T09:54:18;26.50;99.90
9768;DHT22;4923;52.520;13.494;2023-08-21T09:57:05;26.50;99.90
9768;DHT22;4923;52.520;13.494;2023-08-21T09:59:53;26.70;99.90
9768;DHT22;4923;52.520;13.494;2023-08-21T10:02:42;26.80;99.90
9768;DHT22;4923;52.520;13.494;2023-08-21T10:05:34;27.20;99.90
9768;DHT22;4923;52.520;13.494;2023-08-21T10:08:24;27.30;99.90
9768;DHT22;4923;52.520;13.494;2023-08-21T10:11:11;27.20;99.90
9768;DHT22;4923;52.520;13.494;2023-08-21T10:13:59;27.30;99.90
9768;DHT22;4923;52.520;13.494;2023-08-21T10:16:46;27.30;99.90
9768;DHT22;4923;52.520;13.494;2023-08-21T10:19:33;27.30;99.90
9768;DHT22;4923;52.520;13.494;2023-08-21T10:25:19;26.80;99.90
9768;DHT22;4923;52.520;13.494;2023-08-21T10:28:07;26.30;99.90
9768;DHT22;4923;52.520;13.494;2023-08-21T10:30:55;26.50;99.90
9768;DHT22;4923;52.520;13.494;2023-08-21T10:33:47;26.70;99.90
9768;DHT22;4923;52.520;13.494;2023-08-21T10:36:38;26.70;99.90
9768;DHT22;4923;52.520;13.494;2023-08-21T10:39:27;27.20;99.90
9768;DHT22;4923;52.520;13.494;2023-08-21T10:42:18;27.50;99.90
9768;DHT22;4923;52.520;13.494;2023-08-21T10:45:11;27.80;99.90
9768;DHT22;4923;52.520;13.494;2023-08-21T10:47:58;27.60;99.90
9768;DHT22;4923;52.520;13.494;2023-08-21T10:50:45;27.30;99.90
9768;DHT22;4923;52.520;13.494;2023-08-21T10:53:32;27.10;99.90
9768;DHT22;4923;52.520;13.494;2023-08-21T10:56:19;26.90;99.90
9768;DHT22;4923;52.520;13.494;2023-08-21T10:59:07;26.70;99.90
9768;DHT22;4923;52.520;13.494;2023-08-21T11:01:55;26.40;99.90
9768;DHT22;4923;52.520;13.494;2023-08-21T11:04:42;26.40;99.90
9768;DHT22;4923;52.520;13.494;2023-08-21T11:07:30;26.40;99.90
9768;DHT22;4923;52.520;13.494;2023-08-21T11:10:18;26.60;99.90
9768;DHT22;4923;52.520;13.494;2023-08-21T11:13:08;27.10;99.90
9768;DHT22;4923;52.520;13.494;2023-08-21T11:16:00;27.30;99.90
9768;DHT22;4923;52.520;13.494;2023-08-21T11:18:47;27.30;99.90
9768;DHT22;4923;52.520;13.494;2023-08-21T11:21:34;27.40;99.90
9768;DHT22;4923;52.520;13.494;2023-08-21T11:24:21;27.60;99.90
9768;DHT22;4923;52.520;13.494;2023-08-21T11:27:09;27.80;99.90
9768;DHT22;4923;52.520;13.494;2023-08-21T11:29:56;27.80;99.90
9768;DHT22;4923;52.520;13.494;2023-08-21T11:32:45;27.70;99.90
9768;DHT22;4923;52.520;13.494;2023-08-21T11:35:31;27.90;99.90
9768;DHT22;4923;52.520;13.494;2023-08-21T11:38:20;27.60;99.90
9768;DHT22;4923;52.520;13.494;2023-08-21T11:41:08;27.60;99.90
9768;DHT22;4923;52.520;13.494;2023-08-21T11:44:01;27.70;99.90
9768;DHT22;4923;52.520;13.494;2023-08-21T11:46:51;27.90;99.90
9768;DHT22;4923;52.520;13.494;2023-08-21T11:49:41;27.90;99.90
9768;DHT22;4923;52.520;13.494;2023-08-21T11:52:29;28.10;99.90
9768;DHT22;4923;52.520;13.494;2023-08-21T11:55:17;28.10;99.90
9768;DHT22;4923;52.520;13.494;2023-08-21T11:58:05;28.00;99.90
9768;DHT22;4923;52.520;13.494;2023-08-21T12:00:52;28.20;99.90
9768;DHT22;4923;52.520;13.494;2023-08-21T12:03:39;28.20;99.90
9768;DHT22;4923;52.520;13.494;2023-08-21T12:06:27;28.20;99.90
9768;DHT22;4923;52.520;13.494;2023-08-21T12:09:18;28.30;99.90
9768;DHT22;4923;52.520;13.494;2023-08-21T12:12:06;27.80;99.90
9768;DHT22;4923;52.520;13.494;2023-08-21T12:14:53;27.80;99.90
9768;DHT22;4923;52.520;13.494;2023-08-21T12:17:40;27.80;99.90
9768;DHT22;4923;52.520;13.494;2023-08-21T12:20:27;28.20;99.90
9768;DHT22;4923;52.520;13.494;2023-08-21T12:23:16;28.40;99.90
9768;DHT22;4923;52.520;13.494;2023-08-21T12:26:03;28.80;99.90
9768;DHT22;4923;52.520;13.494;2023-08-21T12:28:50;28.50;99.90
9768;DHT22;4923;52.520;13.494;2023-08-21T12:31:37;28.40;99.90
9768;DHT22;4923;52.520;13.494;2023-08-21T12:34:23;28.00;99.90
9768;DHT22;4923;52.520;13.494;2023-08-21T12:37:10;28.40;99.90
9768;DHT22;4923;52.520;13.494;2023-08-21T12:39:59;28.40;99.90
9768;DHT22;4923;52.520;13.494;2023-08-21T12:42:46;28.40;99.90
9768;DHT22;4923;52.520;13.494;2023-08-21T12:45:32;28.50;99.90
9768;DHT22;4923;52.520;13.494;2023-08-21T12:48:19;28.40;99.90
9768;DHT22;4923;52.520;13.494;2023-08-21T12:51:06;28.10;99.90
9768;DHT22;4923;52.520;13.494;2023-08-21T12:53:53;28.00;99.90
9768;DHT22;4923;52.520;13.494;2023-08-21T12:56:41;28.20;99.90
9768;DHT22;4923;52.520;13.494;2023-08-21T12:59:28;28.30;99.90
9768;DHT22;4923;52.520;13.494;2023-08-21T13:02:15;28.20;99.90
9768;DHT22;4923;52.520;13.494;2023-08-21T13:05:02;28.50;99.90
9768;DHT22;4923;52.520;13.494;2023-08-21T13:07:51;28.60;99.90
9768;DHT22;4923;52.520;13.494;2023-08-21T13:10:38;28.50;99.90
9768;DHT22;4923;52.520;13.494;2023-08-21T13:13:27;28.10;99.90
9768;DHT22;4923;52.520;13.494;2023-08-21T13:16:14;27.80;99.90
9768;DHT22;4923;52.520;13.494;2023-08-21T13:19:00;27.70;99.90
9768;DHT22;4923;52.520;13.494;2023-08-21T13:21:47;27.60;99.90
9768;DHT22;4923;52.520;13.494;2023-08-21T13:24:34;27.80;99.90
9768;DHT22;4923;52.520;13.494;2023-08-21T13:27:21;27.90;99.90
9768;DHT22;4923;52.520;13.494;2023-08-21T13:30:11;28.10;99.90
9768;DHT22;4923;52.520;13.494;2023-08-21T13:32:58;28.10;99.90
9768;DHT22;4923;52.520;13.494;2023-08-21T13:35:45;28.30;99.90
9768;DHT22;4923;52.520;13.494;2023-08-21T13:38:32;28.50;99.90
9768;DHT22;4923;52.520;13.494;2023-08-21T13:41:19;28.40;99.90
9768;DHT22;4923;52.520;13.494;2023-08-21T13:44:06;28.40;99.90
9768;DHT22;4923;52.520;13.494;2023-08-21T13:46:54;28.40;99.90
9768;DHT22;4923;52.520;13.494;2023-08-21T13:49:41;28.60;99.90
9768;DHT22;4923;52.520;13.494;2023-08-21T13:52:28;28.20;99.90
9768;DHT22;4923;52.520;13.494;2023-08-21T13:55:15;27.90;99.90
9768;DHT22;4923;52.520;13.494;2023-08-21T13:58:02;27.70;99.90
9768;DHT22;4923;52.520;13.494;2023-08-21T14:00:49;27.70;99.90
9768;DHT22;4923;52.520;13.494;2023-08-21T14:03:37;27.80;99.90
9768;DHT22;4923;52.520;13.494;2023-08-21T14:06:24;27.80;99.90
9768;DHT22;4923;52.520;13.494;2023-08-21T14:09:11;27.90;99.90
9768;DHT22;4923;52.520;13.494;2023-08-21T14:11:58;27.80;99.90
9768;DHT22;4923;52.520;13.494;2023-08-21T14:14:45;27.90;99.90
9768;DHT22;4923;52.520;13.494;2023-08-21T14:17:32;27.80;99.90
9768;DHT22;4923;52.520;13.494;2023-08-21T14:20:20;28.00;99.90
9768;DHT22;4923;52.520;13.494;2023-08-21T14:23:07;28.10;99.90
9768;DHT22;4923;52.520;13.494;2023-08-21T14:25:54;28.10;99.90
9768;DHT22;4923;52.520;13.494;2023-08-21T14:28:41;28.20;99.90
9768;DHT22;4923;52.520;13.494;2023-08-21T14:31:30;28.00;99.90
9768;DHT22;4923;52.520;13.494;2023-08-21T14:34:17;28.20;99.90
9768;DHT22;4923;52.520;13.494;2023-08-21T14:37:05;28.30;99.90
9768;DHT22;4923;52.520;13.494;2023-08-21T14:39:52;28.40;99.90
9768;DHT22;4923;52.520;13.494;2023-08-21T14:42:39;27.90;99.90
9768;DHT22;4923;52.520;13.494;2023-08-21T14:45:26;28.10;99.90
9768;DHT22;4923;52.520;13.494;2023-08-21T14:48:13;28.20;99.90
9768;DHT22;4923;52.520;13.494;2023-08-21T14:51:00;28.20;99.90
9768;DHT22;4923;52.520;13.494;2023-08-21T14:53:48;27.90;99.90
9768;DHT22;4923;52.520;13.494;2023-08-21T14:56:35;27.70;99.90
9768;DHT22;4923;52.520;13.494;2023-08-21T14:59:22;27.70;99.90
9768;DHT22;4923;52.520;13.494;2023-08-21T15:02:08;27.70;99.90
9768;DHT22;4923;52.520;13.494;2023-08-21T15:04:55;27.60;99.90
9768;DHT22;4923;52.520;13.494;2023-08-21T15:07:42;27.70;99.90
9768;DHT22;4923;52.520;13.494;2023-08-21T15:10:30;27.40;99.90
9768;DHT22;4923;52.520;13.494;2023-08-21T15:13:17;27.30;99.90
9768;DHT22;4923;52.520;13.494;2023-08-21T15:16:04;27.30;99.90
9768;DHT22;4923;52.520;13.494;2023-08-21T15:18:51;27.40;99.90
9768;DHT22;4923;52.520;13.494;2023-08-21T15:21:38;27.60;99.90
9768;DHT22;4923;52.520;13.494;2023-08-21T15:24:25;27.60;99.90
9768;DHT22;4923;52.520;13.494;2023-08-21T15:27:13;27.70;99.90
9768;DHT22;4923;52.520;13.494;2023-08-21T15:30:02;28.00;99.90
9768;DHT22;4923;52.520;13.494;2023-08-21T15:32:49;28.20;99.90
9768;DHT22;4923;52.520;13.494;2023-08-21T15:35:36;28.20;99.90
9768;DHT22;4923;52.520;13.494;2023-08-21T15:38:23;28.20;99.90
9768;DHT22;4923;52.520;13.494;2023-08-21T15:41:10;27.90;99.90
9768;DHT22;4923;52.520;13.494;2023-08-21T15:43:58;27.80;99.90
9768;DHT22;4923;52.520;13.494;2023-08-21T15:46:45;27.50;99.90
9768;DHT22;4923;52.520;13.494;2023-08-21T15:49:31;27.50;99.90
9768;DHT22;4923;52.520;13.494;2023-08-21T15:52:18;27.40;99.90
9768;DHT22;4923;52.520;13.494;2023-08-21T15:55:06;27.20;99.90
9768;DHT22;4923;52.520;13.494;2023-08-21T15:57:53;27.30;99.90
9768;DHT22;4923;52.520;13.494;2023-08-21T16:00:41;27.30;99.90
9768;DHT22;4923;52.520;13.494;2023-08-21T16:03:28;27.20;99.90
9768;DHT22;4923;52.520;13.494;2023-08-21T16:06:15;27.10;99.90
9768;DHT22;4923;52.520;13.494;2023-08-21T16:09:02;27.10;99.90
9768;DHT22;4923;52.520;13.494;2023-08-21T16:11:49;27.10;99.90
9768;DHT22;4923;52.520;13.494;2023-08-21T16:14:36;27.10;99.90
9768;DHT22;4923;52.520;13.494;2023-08-21T16:17:24;26.90;99.90
9768;DHT22;4923;52.520;13.494;2023-08-21T16:20:11;26.90;99.90
9768;DHT22;4923;52.520;13.494;2023-08-21T16:23:01;27.00;99.90
9768;DHT22;4923;52.520;13.494;2023-08-21T16:25:47;26.70;99.90
9768;DHT22;4923;52.520;13.494;2023-08-21T16:28:34;26.60;99.90
9768;DHT22;4923;52.520;13.494;2023-08-21T16:31:23;26.40;99.90
9768;DHT22;4923;52.520;13.494;2023-08-21T16:34:11;26.40;99.90
9768;DHT22;4923;52.520;13.494;2023-08-21T16:36:59;26.30;99.90
9768;DHT22;4923;52.520;13.494;2023-08-21T16:39:47;26.30;99.90
9768;DHT22;4923;52.520;13.494;2023-08-21T16:42:34;26.20;99.90
9768;DHT22;4923;52.520;13.494;2023-08-21T16:45:20;26.20;99.90
9768;DHT22;4923;52.520;13.494;2023-08-21T16:48:07;26.10;99.90
9768;DHT22;4923;52.520;13.494;2023-08-21T16:50:56;26.20;99.90
9768;DHT22;4923;52.520;13.494;2023-08-21T16:53:42;26.40;99.90
9768;DHT22;4923;52.520;13.494;2023-08-21T16:56:29;26.50;99.90
9768;DHT22;4923;52.520;13.494;2023-08-21T16:59:16;26.50;99.90
9768;DHT22;4923;52.520;13.494;2023-08-21T17:02:04;26.80;99.90
9768;DHT22;4923;52.520;13.494;2023-08-21T17:04:50;27.00;99.90
9768;DHT22;4923;52.520;13.494;2023-08-21T17:07:39;27.40;99.90
9768;DHT22;4923;52.520;13.494;2023-08-21T17:10:28;27.80;99.90
9768;DHT22;4923;52.520;13.494;2023-08-21T17:13:15;28.00;99.90
9768;DHT22;4923;52.520;13.494;2023-08-21T17:16:03;27.90;99.90
9768;DHT22;4923;52.520;13.494;2023-08-21T17:18:49;27.90;99.90
9768;DHT22;4923;52.520;13.494;2023-08-21T17:21:36;27.90;99.90
9768;DHT22;4923;52.520;13.494;2023-08-21T17:24:24;28.10;99.90
9768;DHT22;4923;52.520;13.494;2023-08-21T17:27:12;28.20;99.90
9768;DHT22;4923;52.520;13.494;2023-08-21T17:29:59;27.90;99.90
9768;DHT22;4923;52.520;13.494;2023-08-21T17:32:45;27.90;99.90
9768;DHT22;4923;52.520;13.494;2023-08-21T17:35:33;28.00;99.90
9768;DHT22;4923;52.520;13.494;2023-08-21T17:38:19;27.70;99.90
9768;DHT22;4923;52.520;13.494;2023-08-21T17:41:08;28.00;99.90
9768;DHT22;4923;52.520;13.494;2023-08-21T17:43:56;27.70;99.90
9768;DHT22;4923;52.520;13.494;2023-08-21T17:46:43;27.00;99.90
9768;DHT22;4923;52.520;13.494;2023-08-21T17:49:30;26.80;99.90
9768;DHT22;4923;52.520;13.494;2023-08-21T17:52:17;26.20;99.90
9768;DHT22;4923;52.520;13.494;2023-08-21T17:55:05;26.00;99.90
9768;DHT22;4923;52.520;13.494;2023-08-21T17:57:53;25.60;99.90